Rechercher aéroport 
image banner adimage banner adimage banner ad
image banner ad

99CL - El Mirage Field Adelanto

Situé à El Mirage, United States

ICAO - 99CL, IATA -

Données fournies par Airmate  

Information générale

Coordonnées: N34°37'30" W117°36'18"
Élévation : 2865 feet MSL.
Variation magnétique : 14° East
Voir autres Aéroports à California

Données opérationnelles

Special qualification required
Heure actuelle UTC:
Heure actuelle locale:
METAR: KVCV 300045Z AUTO 16015G21KT 10SM CLR 37/05 A2991 RMK DA6100
Voir NOTAMs / SUP AIP / TFR affectant cet aéroport [VIEW]
Fréquences de communication: [VIEW]

Pistes:

Identifiant RWYQFULongueur (ft)Largeur (ft)SurfaceLDA (ft)
043700150ASPH
223700150ASPH
073200150ASPH
253200150ASPH
163700150ASPH
343700150ASPH

Coordonnées de l'aéroport

Adresse: El Mirage United States

Vue satellite de 99CL